Aviation Digital Data Service (ADDS)

Output produced by METARs form (0444 UTC 26 April 2019)
found at http://www.aviationweather.gov/metar/data/
 
Forecast for: LIMF (TORINO/CASELLE , IT)
Text: TAF LIMF 252300Z 2600/2624 VRB05KT 9999 SCT030 BKN070
Forecast period: 0000 UTC 26 April 2019 to 0000 UTC 27 April 2019
Forecast type: FROM: standard forecast or significant change
Winds: variable direction winds at 6 MPH (5 knots; 2.6 m/s)
Visibility: 6 or more miles 10+ km)
Ceiling: 7000 feet AGL
Clouds: scattered clouds at 3000 feet AGL
broken clouds at 7000 feet AGL
Weather: no significant weather forecast for this period
Text: TEMPO 2610/2616 4000 TSRA
Forecast period: 1000 to 1600 UTC 26 April 2019
Forecast type: TEMPORARY: The following changes expected for less than half the time period
Visibility: 2.49 miles (4.01 km)
Ceiling: unknown
Clouds: missing
Weather: TSRA  (rain associated with thunderstorm(s))